createdAt,value
2023-05-05T00:00:14.257Z,475.00
2023-05-05T00:01:07.188Z,477.00
2023-05-05T00:02:07.234Z,477.00
2023-05-05T00:03:07.286Z,475.00
2023-05-05T00:04:07.212Z,477.00
2023-05-05T00:05:07.198Z,478.00
2023-05-05T00:06:07.230Z,477.00
2023-05-05T00:07:07.214Z,478.00
2023-05-05T00:08:07.196Z,478.00
2023-05-05T00:09:07.212Z,478.00
2023-05-05T00:10:07.389Z,476.00
2023-05-05T00:11:07.200Z,471.00
2023-05-05T00:12:07.205Z,474.00
2023-05-05T00:13:07.346Z,473.00
2023-05-05T00:14:07.189Z,472.00
2023-05-05T00:15:07.186Z,472.00
2023-05-05T00:16:07.184Z,472.00
2023-05-05T00:17:07.261Z,472.00
2023-05-05T00:18:07.211Z,474.00
2023-05-05T00:19:07.180Z,473.00
2023-05-05T00:20:07.474Z,474.00
2023-05-05T00:21:07.216Z,473.00
2023-05-05T00:22:07.168Z,471.00
2023-05-05T00:23:07.157Z,470.00
2023-05-05T00:24:07.170Z,470.00
2023-05-05T00:25:07.218Z,469.00
2023-05-05T00:26:07.164Z,471.00
2023-05-05T00:27:07.205Z,468.00
2023-05-05T00:28:07.169Z,466.00
2023-05-05T00:29:07.168Z,469.00
2023-05-05T00:30:07.385Z,469.00
2023-05-05T00:31:07.216Z,470.00
2023-05-05T00:32:07.177Z,471.00
2023-05-05T00:33:07.148Z,470.00
2023-05-05T00:34:07.185Z,472.00
2023-05-05T00:35:07.153Z,472.00
2023-05-05T00:36:07.145Z,470.00
2023-05-05T00:37:07.149Z,470.00
2023-05-05T00:38:07.149Z,469.00
2023-05-05T00:39:07.150Z,470.00
2023-05-05T00:40:07.378Z,468.00
2023-05-05T00:41:07.125Z,467.00
2023-05-05T00:42:07.129Z,467.00
2023-05-05T00:43:07.125Z,469.00
2023-05-05T00:44:07.122Z,472.00
2023-05-05T00:45:07.141Z,470.00
2023-05-05T00:46:07.190Z,469.00
2023-05-05T00:47:07.139Z,467.00
2023-05-05T00:48:07.178Z,465.00
2023-05-05T00:49:07.131Z,465.00
2023-05-05T00:50:07.377Z,467.00
2023-05-05T00:51:07.073Z,467.00
2023-05-05T00:52:07.071Z,469.00
2023-05-05T00:53:07.066Z,466.00
2023-05-05T00:54:07.071Z,466.00
2023-05-05T00:55:07.043Z,465.00
2023-05-05T00:56:07.039Z,465.00
2023-05-05T00:57:07.024Z,467.00
2023-05-05T00:58:07.025Z,467.00
2023-05-05T00:59:07.015Z,470.00
2023-05-05T01:00:07.093Z,469.00
2023-05-05T01:01:07.006Z,468.00
2023-05-05T01:02:06.994Z,469.00
2023-05-05T01:03:07.074Z,472.00
2023-05-05T01:04:07.131Z,470.00
2023-05-05T01:05:06.999Z,468.00
2023-05-05T01:06:07.040Z,467.00
2023-05-05T01:07:06.971Z,467.00
2023-05-05T01:08:06.972Z,469.00
2023-05-05T01:09:06.992Z,469.00
2023-05-05T01:10:18.871Z,469.00
2023-05-05T01:11:07.976Z,470.00
2023-05-05T01:12:06.946Z,469.00
2023-05-05T01:13:07.032Z,470.00
2023-05-05T01:14:06.938Z,469.00
2023-05-05T01:15:06.942Z,470.00
2023-05-05T01:16:06.977Z,467.00
2023-05-05T01:17:06.943Z,469.00
2023-05-05T01:18:07.034Z,471.00
2023-05-05T01:19:06.924Z,472.00
2023-05-05T01:20:07.169Z,473.00
2023-05-05T01:21:06.948Z,476.00
2023-05-05T01:22:06.931Z,476.00
2023-05-05T01:23:07.254Z,477.00
2023-05-05T01:24:06.902Z,476.00
2023-05-05T01:25:06.920Z,474.00
2023-05-05T01:26:06.891Z,474.00
2023-05-05T01:27:06.895Z,475.00
2023-05-05T01:28:06.900Z,477.00
2023-05-05T01:29:06.896Z,477.00
2023-05-05T01:30:07.236Z,475.00
2023-05-05T01:31:06.879Z,473.00
2023-05-05T01:32:06.888Z,472.00
2023-05-05T01:33:06.879Z,470.00
2023-05-05T01:34:06.872Z,469.00
2023-05-05T01:35:06.875Z,468.00
2023-05-05T01:36:06.875Z,468.00
2023-05-05T01:37:06.860Z,472.00
2023-05-05T01:38:06.877Z,468.00
2023-05-05T01:39:06.846Z,467.00
2023-05-05T01:40:07.099Z,467.00
2023-05-05T01:41:06.843Z,466.00
2023-05-05T01:42:06.830Z,464.00
2023-05-05T01:43:06.821Z,463.00
2023-05-05T01:44:06.823Z,461.00
2023-05-05T01:45:06.849Z,461.00
2023-05-05T01:46:06.862Z,459.00
2023-05-05T01:47:06.821Z,461.00
2023-05-05T01:48:06.846Z,463.00
2023-05-05T01:49:06.816Z,465.00
2023-05-05T01:50:06.942Z,467.00
2023-05-05T01:51:06.874Z,465.00
2023-05-05T01:52:06.971Z,465.00
2023-05-05T01:53:06.934Z,464.00
2023-05-05T01:54:06.980Z,465.00
2023-05-05T01:55:06.999Z,465.00
2023-05-05T01:56:07.055Z,467.00
2023-05-05T01:57:07.085Z,472.00
2023-05-05T01:58:07.117Z,471.00
2023-05-05T01:59:07.157Z,468.00
2023-05-05T02:00:07.358Z,467.00
2023-05-05T02:01:07.205Z,467.00
2023-05-05T02:02:07.213Z,467.00
2023-05-05T02:03:07.234Z,466.00
2023-05-05T02:04:07.162Z,468.00
2023-05-05T02:05:07.160Z,466.00
2023-05-05T02:06:07.181Z,465.00
2023-05-05T02:07:07.141Z,463.00
2023-05-05T02:08:07.176Z,463.00
2023-05-05T02:09:07.144Z,464.00
2023-05-05T02:10:07.325Z,465.00
2023-05-05T02:11:07.148Z,465.00
2023-05-05T02:12:07.173Z,461.00
2023-05-05T02:13:07.232Z,461.00
2023-05-05T02:14:07.152Z,462.00
2023-05-05T02:15:07.140Z,464.00
2023-05-05T02:16:07.212Z,463.00
2023-05-05T02:17:07.181Z,461.00
2023-05-05T02:18:07.215Z,460.00
2023-05-05T02:19:07.247Z,460.00
2023-05-05T02:20:07.468Z,460.00
2023-05-05T02:21:07.248Z,460.00
2023-05-05T02:22:07.234Z,460.00
2023-05-05T02:23:07.243Z,462.00
2023-05-05T02:24:07.241Z,460.00
2023-05-05T02:25:07.298Z,460.00
2023-05-05T02:26:07.271Z,458.00
2023-05-05T02:27:07.275Z,460.00
2023-05-05T02:28:07.270Z,458.00
2023-05-05T02:29:07.280Z,457.00
2023-05-05T02:30:07.602Z,458.00
2023-05-05T02:31:07.307Z,457.00
2023-05-05T02:32:07.284Z,462.00
2023-05-05T02:33:07.256Z,458.00
2023-05-05T02:34:07.262Z,458.00
2023-05-05T02:35:07.231Z,457.00
2023-05-05T02:36:07.228Z,456.00
2023-05-05T02:37:07.223Z,454.00
2023-05-05T02:38:07.221Z,457.00
2023-05-05T02:39:07.206Z,458.00
2023-05-05T02:40:07.527Z,457.00
2023-05-05T02:41:07.180Z,455.00
2023-05-05T02:42:07.168Z,454.00
2023-05-05T02:43:07.184Z,457.00
2023-05-05T02:44:07.159Z,458.00
2023-05-05T02:45:07.156Z,461.00
2023-05-05T02:46:07.235Z,460.00
2023-05-05T02:47:07.119Z,460.00
2023-05-05T02:48:07.173Z,462.00
2023-05-05T02:49:07.125Z,463.00
2023-05-05T02:50:07.344Z,463.00
2023-05-05T02:51:07.159Z,465.00
2023-05-05T02:52:07.205Z,466.00
2023-05-05T02:53:07.261Z,464.00
2023-05-05T02:54:07.372Z,465.00
2023-05-05T02:55:07.302Z,463.00
2023-05-05T02:56:07.336Z,458.00
2023-05-05T02:57:07.376Z,455.00
2023-05-05T02:58:07.418Z,456.00
2023-05-05T02:59:07.446Z,458.00
2023-05-05T03:00:07.704Z,456.00
2023-05-05T03:01:07.503Z,456.00
2023-05-05T03:02:07.467Z,458.00
2023-05-05T03:03:07.559Z,459.00
2023-05-05T03:04:07.467Z,460.00
2023-05-05T03:05:07.491Z,459.00
2023-05-05T03:06:07.457Z,459.00
2023-05-05T03:07:07.448Z,457.00
2023-05-05T03:08:07.441Z,456.00
2023-05-05T03:09:07.408Z,459.00
2023-05-05T03:10:07.721Z,457.00
2023-05-05T03:11:07.425Z,456.00
2023-05-05T03:12:07.391Z,454.00
2023-05-05T03:13:07.459Z,455.00
2023-05-05T03:14:07.389Z,455.00
2023-05-05T03:15:07.375Z,454.00
2023-05-05T03:16:07.454Z,456.00
2023-05-05T03:17:07.458Z,453.00
2023-05-05T03:18:07.632Z,448.00
2023-05-05T03:19:07.530Z,447.00
2023-05-05T03:20:07.732Z,445.00
2023-05-05T03:21:07.536Z,447.00
2023-05-05T03:22:07.521Z,449.00
2023-05-05T03:23:07.513Z,450.00
2023-05-05T03:24:07.498Z,450.00
2023-05-05T03:25:07.504Z,452.00
2023-05-05T03:26:07.521Z,449.00
2023-05-05T03:27:07.483Z,447.00
2023-05-05T03:28:07.469Z,444.00
2023-05-05T03:29:07.478Z,446.00
2023-05-05T03:30:07.792Z,445.00
2023-05-05T03:31:07.449Z,445.00
2023-05-05T03:32:07.644Z,446.00
2023-05-05T03:33:07.621Z,447.00
2023-05-05T03:34:07.576Z,444.00
2023-05-05T03:35:07.624Z,444.00
2023-05-05T03:36:07.728Z,446.00
2023-05-05T03:37:07.744Z,447.00
2023-05-05T03:38:07.789Z,444.00
2023-05-05T03:39:07.820Z,443.00
2023-05-05T03:40:08.112Z,442.00
2023-05-05T03:41:07.900Z,441.00
2023-05-05T03:42:07.946Z,441.00
2023-05-05T03:43:08.061Z,444.00
2023-05-05T03:44:08.030Z,446.00
2023-05-05T03:45:08.002Z,446.00
2023-05-05T03:46:08.000Z,443.00
2023-05-05T03:47:07.982Z,443.00
2023-05-05T03:48:08.094Z,442.00
2023-05-05T03:49:07.980Z,445.00
2023-05-05T03:50:08.185Z,447.00
2023-05-05T03:51:07.982Z,447.00
2023-05-05T03:52:08.006Z,446.00
2023-05-05T03:53:07.965Z,450.00
2023-05-05T03:54:07.955Z,452.00
2023-05-05T03:55:07.990Z,453.00
2023-05-05T03:56:08.027Z,452.00
2023-05-05T03:57:08.098Z,450.00
2023-05-05T03:58:08.150Z,448.00
2023-05-05T03:59:08.196Z,449.00
2023-05-05T04:00:08.387Z,448.00
2023-05-05T04:01:08.299Z,448.00
2023-05-05T04:02:08.366Z,449.00
2023-05-05T04:03:08.620Z,448.00
2023-05-05T04:04:08.460Z,445.00
2023-05-05T04:05:08.498Z,447.00
2023-05-05T04:06:08.555Z,447.00
2023-05-05T04:07:08.595Z,449.00
2023-05-05T04:08:08.658Z,450.00
2023-05-05T04:09:08.698Z,451.00
2023-05-05T04:10:08.933Z,451.00
2023-05-05T04:11:08.754Z,451.00
2023-05-05T04:12:08.743Z,453.00
2023-05-05T04:13:08.855Z,455.00
2023-05-05T04:14:08.737Z,455.00
2023-05-05T04:15:08.740Z,454.00
2023-05-05T04:16:08.876Z,454.00
2023-05-05T04:17:08.743Z,453.00
2023-05-05T04:18:08.812Z,453.00
2023-05-05T04:19:08.720Z,454.00
2023-05-05T04:20:08.895Z,455.00
2023-05-05T04:21:08.714Z,455.00
2023-05-05T04:22:08.717Z,455.00
2023-05-05T04:23:08.729Z,456.00
2023-05-05T04:24:08.733Z,457.00
2023-05-05T04:25:08.792Z,457.00
2023-05-05T04:26:08.851Z,459.00
2023-05-05T04:27:08.897Z,456.00
2023-05-05T04:28:08.964Z,457.00
2023-05-05T04:29:09.002Z,459.00
2023-05-05T04:30:09.252Z,461.00
2023-05-05T04:31:09.135Z,461.00
2023-05-05T04:32:09.159Z,462.00
2023-05-05T04:33:09.193Z,459.00
2023-05-05T04:34:09.229Z,455.00
2023-05-05T04:35:09.289Z,456.00
2023-05-05T04:36:09.356Z,454.00
2023-05-05T04:37:09.376Z,454.00
2023-05-05T04:38:09.416Z,452.00
2023-05-05T04:39:09.416Z,452.00
2023-05-05T04:40:09.781Z,453.00
2023-05-05T04:41:09.421Z,454.00
2023-05-05T04:42:09.422Z,454.00
2023-05-05T04:43:09.437Z,453.00
2023-05-05T04:44:09.442Z,452.00
2023-05-05T04:45:09.423Z,449.00
2023-05-05T04:46:09.480Z,449.00
2023-05-05T04:47:09.452Z,446.00
2023-05-05T04:48:09.585Z,443.00
2023-05-05T04:49:09.503Z,445.00
2023-05-05T04:50:09.648Z,449.00
2023-05-05T04:51:09.489Z,450.00
2023-05-05T04:52:09.593Z,450.00
2023-05-05T04:53:09.502Z,448.00
2023-05-05T04:54:09.492Z,448.00
2023-05-05T04:55:09.503Z,447.00
2023-05-05T04:56:09.503Z,447.00
2023-05-05T04:57:09.485Z,446.00
2023-05-05T04:58:09.525Z,447.00
2023-05-05T04:59:09.484Z,447.00
2023-05-05T05:00:09.757Z,448.00
2023-05-05T05:01:09.550Z,447.00
2023-05-05T05:02:09.560Z,447.00
2023-05-05T05:03:09.616Z,445.00
2023-05-05T05:04:09.598Z,447.00
2023-05-05T05:05:09.587Z,446.00
2023-05-05T05:06:09.578Z,445.00
2023-05-05T05:07:09.639Z,443.00
2023-05-05T05:08:09.597Z,442.00
2023-05-05T05:09:09.599Z,442.00
2023-05-05T05:10:09.860Z,446.00
2023-05-05T05:11:09.607Z,447.00
2023-05-05T05:12:09.640Z,448.00
2023-05-05T05:13:11.924Z,446.00
2023-05-05T05:14:09.630Z,447.00
2023-05-05T05:15:09.642Z,447.00
2023-05-05T05:16:09.678Z,447.00
2023-05-05T05:17:09.641Z,446.00
2023-05-05T05:18:09.641Z,442.00
2023-05-05T05:19:09.632Z,440.00
2023-05-05T05:20:10.138Z,440.00
2023-05-05T05:21:09.634Z,441.00
2023-05-05T05:22:09.646Z,438.00
2023-05-05T05:23:09.652Z,440.00
2023-05-05T05:24:09.611Z,442.00
2023-05-05T05:25:09.610Z,441.00
2023-05-05T05:26:09.634Z,441.00
2023-05-05T05:27:10.168Z,441.00
2023-05-05T05:28:11.098Z,440.00
2023-05-05T05:29:09.592Z,441.00
2023-05-05T05:30:09.856Z,440.00
2023-05-05T05:31:09.668Z,441.00
2023-05-05T05:32:09.815Z,441.00
2023-05-05T05:33:09.800Z,439.00
2023-05-05T05:34:12.572Z,441.00
2023-05-05T05:35:09.847Z,444.00
2023-05-05T05:36:09.855Z,447.00
2023-05-05T05:37:09.823Z,478.00
2023-05-05T05:38:09.826Z,485.00
2023-05-05T05:39:09.804Z,524.00
2023-05-05T05:40:10.024Z,574.00
2023-05-05T05:41:09.805Z,569.00
2023-05-05T05:42:09.822Z,584.00
2023-05-05T05:43:09.812Z,653.00
2023-05-05T05:44:09.792Z,686.00
2023-05-05T05:45:09.769Z,726.00
2023-05-05T05:46:09.863Z,749.00
2023-05-05T05:47:09.751Z,756.00
2023-05-05T05:48:09.838Z,801.00
2023-05-05T05:49:09.726Z,814.00
2023-05-05T05:50:10.001Z,835.00
2023-05-05T05:51:09.710Z,853.00
2023-05-05T05:52:09.731Z,872.00
2023-05-05T05:53:09.720Z,923.00
2023-05-05T05:54:09.659Z,937.00
2023-05-05T05:55:09.723Z,953.00
2023-05-05T05:56:09.640Z,982.00
2023-05-05T05:57:09.701Z,994.00
2023-05-05T05:58:09.649Z,1004.00
2023-05-05T05:59:09.608Z,1025.00
2023-05-05T06:00:09.844Z,1053.00
2023-05-05T06:01:09.611Z,1071.00
2023-05-05T06:02:09.630Z,1087.00
2023-05-05T06:03:09.786Z,1106.00
2023-05-05T06:04:09.665Z,1134.00
2023-05-05T06:05:09.564Z,1160.00
2023-05-05T06:06:09.548Z,1172.00
2023-05-05T06:07:09.543Z,1213.00
2023-05-05T06:08:09.532Z,1233.00
2023-05-05T06:09:09.517Z,1244.00
2023-05-05T06:10:25.659Z,1247.00
2023-05-05T06:11:10.500Z,1257.00
2023-05-05T06:12:09.498Z,1278.00
2023-05-05T06:13:09.667Z,1305.00
2023-05-05T06:14:09.494Z,1333.00
2023-05-05T06:15:09.501Z,1353.00
2023-05-05T06:16:09.524Z,1373.00
2023-05-05T06:17:09.447Z,1388.00
2023-05-05T06:18:09.492Z,1408.00
2023-05-05T06:19:09.465Z,1415.00
2023-05-05T06:20:09.633Z,1423.00
2023-05-05T06:21:09.399Z,1434.00
2023-05-05T06:22:09.504Z,1459.00
2023-05-05T06:23:09.397Z,1478.00
2023-05-05T06:24:09.604Z,1495.00
2023-05-05T06:25:09.401Z,1506.00
2023-05-05T06:26:09.367Z,1531.00
2023-05-05T06:27:09.365Z,1542.00
2023-05-05T06:28:09.388Z,1560.00
2023-05-05T06:29:11.716Z,1574.00
2023-05-05T06:30:09.824Z,1597.00
2023-05-05T06:31:09.500Z,1604.00
2023-05-05T06:32:09.413Z,1616.00
2023-05-05T06:33:09.451Z,1627.00
2023-05-05T06:34:09.387Z,1648.00
2023-05-05T06:35:09.366Z,1671.00
2023-05-05T06:36:09.373Z,1679.00
2023-05-05T06:37:09.361Z,1705.00
2023-05-05T06:38:09.320Z,1711.00
2023-05-05T06:39:09.297Z,1722.00
2023-05-05T06:40:09.550Z,1738.00
2023-05-05T06:41:09.278Z,1750.00
2023-05-05T06:42:09.296Z,1853.00
2023-05-05T06:43:09.269Z,1868.00
2023-05-05T06:44:09.234Z,1832.00
2023-05-05T06:45:09.259Z,1796.00
2023-05-05T06:46:09.202Z,1777.00
2023-05-05T06:47:09.232Z,1760.00
2023-05-05T06:48:09.319Z,1719.00
2023-05-05T06:49:09.216Z,1675.00
2023-05-05T06:50:09.809Z,1577.00
2023-05-05T06:51:09.364Z,1488.00
2023-05-05T06:52:09.380Z,1451.00
2023-05-05T06:53:10.401Z,1443.00
2023-05-05T06:54:09.501Z,1425.00
2023-05-05T06:55:09.527Z,1348.00
2023-05-05T06:56:09.650Z,1300.00
2023-05-05T06:57:09.572Z,1255.00
2023-05-05T06:58:09.552Z,1235.00
2023-05-05T06:59:09.585Z,1203.00
2023-05-05T07:00:09.692Z,1192.00
2023-05-05T07:01:09.553Z,1179.00
2023-05-05T07:02:09.559Z,1162.00
2023-05-05T07:03:09.556Z,1142.00
2023-05-05T07:04:09.556Z,1126.00
2023-05-05T07:05:09.640Z,1110.00
2023-05-05T07:06:09.491Z,1096.00
2023-05-05T07:07:09.470Z,1080.00
2023-05-05T07:08:09.464Z,1068.00
2023-05-05T07:09:09.447Z,1048.00
2023-05-05T07:10:09.668Z,1044.00
2023-05-05T07:11:09.658Z,1040.00
2023-05-05T07:12:09.505Z,1032.00
2023-05-05T07:13:09.653Z,1026.00
2023-05-05T07:14:09.440Z,1021.00
2023-05-05T07:15:23.426Z,1011.00
2023-05-05T07:16:09.409Z,1003.00
2023-05-05T07:17:09.413Z,991.00
2023-05-05T07:18:09.457Z,975.00
2023-05-05T07:19:09.319Z,973.00
2023-05-05T07:20:09.577Z,965.00
2023-05-05T07:21:09.285Z,956.00
2023-05-05T07:22:09.240Z,951.00
2023-05-05T07:23:09.243Z,949.00
2023-05-05T07:24:09.246Z,945.00
2023-05-05T07:25:09.217Z,939.00
2023-05-05T07:26:09.207Z,929.00
2023-05-05T07:27:09.268Z,924.00
2023-05-05T07:28:09.244Z,921.00
2023-05-05T07:29:09.219Z,918.00
2023-05-05T07:30:12.592Z,917.00
2023-05-05T07:31:10.207Z,915.00
2023-05-05T07:32:09.246Z,912.00
2023-05-05T07:33:09.168Z,908.00
2023-05-05T07:34:09.199Z,905.00
2023-05-05T07:35:09.102Z,905.00
2023-05-05T07:36:09.245Z,902.00
2023-05-05T07:37:09.101Z,902.00
2023-05-05T07:38:10.850Z,829.00
2023-05-05T07:39:09.114Z,835.00
2023-05-05T07:40:09.559Z,854.00
2023-05-05T07:41:09.068Z,903.00
2023-05-05T07:42:09.094Z,846.00
2023-05-05T07:43:09.073Z,986.00
2023-05-05T07:44:09.162Z,916.00
2023-05-05T07:45:09.049Z,963.00
2023-05-05T07:46:09.275Z,949.00
2023-05-05T07:47:09.035Z,957.00
2023-05-05T07:48:09.218Z,953.00
2023-05-05T07:49:09.022Z,853.00
2023-05-05T07:50:09.296Z,819.00
2023-05-05T07:51:23.988Z,708.00
2023-05-05T07:52:08.996Z,727.00
2023-05-05T07:53:14.423Z,740.00
2023-05-05T07:54:09.972Z,737.00
2023-05-05T07:55:08.931Z,723.00
2023-05-05T07:56:09.917Z,737.00
2023-05-05T07:57:08.916Z,725.00
2023-05-05T07:58:09.055Z,719.00
2023-05-05T07:59:08.883Z,685.00
2023-05-05T08:00:09.449Z,726.00
2023-05-05T08:01:08.852Z,749.00
2023-05-05T08:02:08.900Z,733.00
2023-05-05T08:03:11.645Z,717.00
2023-05-05T08:04:08.942Z,684.00
2023-05-05T08:05:09.180Z,610.00
2023-05-05T08:06:08.824Z,564.00
2023-05-05T08:07:08.802Z,598.00
2023-05-05T08:08:08.783Z,669.00
2023-05-05T08:09:08.824Z,646.00
2023-05-05T08:10:08.777Z,654.00
2023-05-05T08:11:08.773Z,666.00
2023-05-05T08:12:08.774Z,665.00
2023-05-05T08:13:08.841Z,686.00
2023-05-05T08:14:08.750Z,674.00
2023-05-05T08:15:09.184Z,620.00
2023-05-05T08:16:08.817Z,587.00
2023-05-05T08:17:08.718Z,579.00
2023-05-05T08:18:08.734Z,572.00
2023-05-05T08:19:21.142Z,658.00
2023-05-05T08:20:09.726Z,703.00
2023-05-05T08:21:08.701Z,700.00
2023-05-05T08:22:08.736Z,703.00
2023-05-05T08:23:08.696Z,711.00
2023-05-05T08:24:08.748Z,718.00
2023-05-05T08:25:08.897Z,726.00
2023-05-05T08:26:08.640Z,757.00
2023-05-05T08:27:08.624Z,781.00
2023-05-05T08:28:08.650Z,774.00
2023-05-05T08:29:08.608Z,769.00
2023-05-05T08:30:08.725Z,780.00
2023-05-05T08:31:08.728Z,810.00
2023-05-05T08:32:08.612Z,834.00
2023-05-05T08:33:08.623Z,820.00
2023-05-05T08:34:08.546Z,717.00
2023-05-05T08:35:08.896Z,757.00
2023-05-05T08:36:08.498Z,750.00
2023-05-05T08:37:08.506Z,754.00
2023-05-05T08:38:08.474Z,756.00
2023-05-05T08:39:08.485Z,679.00
2023-05-05T08:40:08.476Z,686.00
2023-05-05T08:41:08.475Z,692.00
2023-05-05T08:42:08.519Z,698.00
2023-05-05T08:43:08.825Z,701.00
2023-05-05T08:44:08.556Z,704.00
2023-05-05T08:45:08.930Z,705.00
2023-05-05T08:46:08.561Z,701.00
2023-05-05T08:47:08.680Z,710.00
2023-05-05T08:48:08.630Z,719.00
2023-05-05T08:49:08.551Z,727.00
2023-05-05T08:50:08.528Z,748.00
2023-05-05T08:51:08.488Z,796.00
2023-05-05T08:52:08.525Z,808.00
2023-05-05T08:53:08.464Z,860.00
2023-05-05T08:54:08.961Z,890.00
2023-05-05T08:55:08.827Z,907.00
2023-05-05T08:56:08.479Z,899.00
2023-05-05T08:57:08.403Z,883.00
2023-05-05T08:58:08.470Z,880.00
2023-05-05T08:59:08.458Z,873.00
2023-05-05T09:00:08.475Z,866.00
2023-05-05T09:01:08.643Z,842.00
2023-05-05T09:02:08.621Z,832.00
2023-05-05T09:03:08.919Z,820.00
2023-05-05T09:04:09.548Z,810.00
2023-05-05T09:05:08.961Z,803.00
2023-05-05T09:06:08.940Z,796.00
2023-05-05T09:07:08.854Z,795.00
2023-05-05T09:08:08.896Z,799.00
2023-05-05T09:09:08.925Z,802.00
2023-05-05T09:10:08.999Z,805.00
2023-05-05T09:11:09.077Z,806.00
2023-05-05T09:12:09.099Z,806.00
2023-05-05T09:13:09.211Z,806.00
2023-05-05T09:14:09.235Z,807.00
2023-05-05T09:15:09.548Z,810.00
2023-05-05T09:16:09.310Z,811.00
2023-05-05T09:17:09.453Z,811.00
2023-05-05T09:18:09.493Z,811.00
2023-05-05T09:19:09.518Z,813.00
2023-05-05T09:20:09.667Z,815.00
2023-05-05T09:21:09.602Z,821.00
2023-05-05T09:22:09.810Z,819.00
2023-05-05T09:23:09.744Z,813.00
2023-05-05T09:24:09.999Z,807.00
2023-05-05T09:25:10.283Z,801.00
2023-05-05T09:26:10.081Z,800.00
2023-05-05T09:27:10.121Z,792.00
2023-05-05T09:28:10.230Z,789.00
2023-05-05T09:29:10.287Z,788.00
2023-05-05T09:30:10.086Z,787.00
2023-05-05T09:31:10.250Z,791.00
2023-05-05T09:32:10.248Z,790.00
2023-05-05T09:33:10.253Z,791.00
2023-05-05T09:34:10.066Z,792.00
2023-05-05T09:35:10.306Z,792.00
2023-05-05T09:36:10.334Z,792.00
2023-05-05T09:37:10.345Z,789.00
2023-05-05T09:38:10.323Z,786.00
2023-05-05T09:39:10.396Z,778.00
2023-05-05T09:40:10.372Z,774.00
2023-05-05T09:41:10.359Z,770.00
2023-05-05T09:42:10.346Z,768.00
2023-05-05T09:43:11.055Z,748.00
2023-05-05T09:44:10.466Z,759.00
2023-05-05T09:45:10.566Z,770.00
2023-05-05T09:46:10.364Z,768.00
2023-05-05T09:47:25.967Z,834.00
2023-05-05T09:48:11.406Z,832.00
2023-05-05T09:49:10.294Z,867.00
2023-05-05T09:50:10.348Z,845.00
2023-05-05T09:51:10.334Z,856.00
2023-05-05T09:52:10.348Z,872.00
2023-05-05T09:53:10.266Z,877.00
2023-05-05T09:54:10.239Z,886.00
2023-05-05T09:55:10.235Z,891.00
2023-05-05T09:56:10.303Z,871.00
2023-05-05T09:57:11.109Z,865.00
2023-05-05T09:58:10.401Z,895.00
2023-05-05T09:59:10.443Z,902.00
2023-05-05T10:00:10.727Z,912.00
2023-05-05T10:01:10.777Z,909.00
2023-05-05T10:02:10.485Z,906.00
2023-05-05T10:03:10.502Z,887.00
2023-05-05T10:04:10.468Z,875.00
2023-05-05T10:05:10.510Z,876.00
2023-05-05T10:06:10.426Z,884.00
2023-05-05T10:07:11.080Z,892.00
2023-05-05T10:08:10.467Z,909.00
2023-05-05T10:09:11.039Z,937.00
2023-05-05T10:10:10.578Z,984.00
2023-05-05T10:11:10.398Z,999.00
2023-05-05T10:12:10.324Z,1036.00
2023-05-05T10:13:10.333Z,1043.00
2023-05-05T10:14:10.280Z,1053.00
2023-05-05T10:15:10.274Z,1062.00
2023-05-05T10:16:10.289Z,1132.00
2023-05-05T10:17:10.230Z,1148.00
2023-05-05T10:18:10.219Z,1157.00
2023-05-05T10:19:10.209Z,1173.00
2023-05-05T10:20:10.954Z,1190.00
2023-05-05T10:21:10.205Z,1201.00
2023-05-05T10:22:10.253Z,1212.00
2023-05-05T10:23:10.322Z,1235.00
2023-05-05T10:24:10.190Z,1248.00
2023-05-05T10:25:10.083Z,1260.00
2023-05-05T10:26:10.084Z,1295.00
2023-05-05T10:27:12.123Z,1342.00
2023-05-05T10:28:10.365Z,1345.00
2023-05-05T10:29:10.257Z,1359.00
2023-05-05T10:30:10.353Z,1365.00
2023-05-05T10:31:24.431Z,1377.00
2023-05-05T10:32:33.431Z,1385.00
2023-05-05T10:34:10.272Z,1411.00
2023-05-05T10:35:10.038Z,1417.00
2023-05-05T10:36:09.983Z,1451.00
2023-05-05T10:37:09.962Z,1234.00
2023-05-05T10:38:09.944Z,1420.00
2023-05-05T10:39:09.921Z,1411.00
2023-05-05T10:40:10.165Z,1095.00
2023-05-05T10:41:09.955Z,1108.00
2023-05-05T10:42:09.869Z,1161.00
2023-05-05T10:43:09.828Z,1171.00
2023-05-05T10:44:09.830Z,1176.00
2023-05-05T10:45:09.885Z,977.00
2023-05-05T10:46:09.825Z,974.00
2023-05-05T10:47:09.780Z,983.00
2023-05-05T10:48:09.892Z,990.00
2023-05-05T10:49:11.650Z,1013.00
2023-05-05T10:50:10.021Z,1014.00
2023-05-05T10:51:09.839Z,1035.00
2023-05-05T10:52:09.703Z,1063.00
2023-05-05T10:53:09.673Z,1088.00
2023-05-05T10:54:09.770Z,1115.00
2023-05-05T10:55:09.999Z,1107.00
2023-05-05T10:56:09.633Z,1114.00
2023-05-05T10:57:09.632Z,1151.00
2023-05-05T10:58:09.599Z,1149.00
2023-05-05T10:59:09.579Z,1167.00
2023-05-05T11:00:09.753Z,1208.00
2023-05-05T11:01:09.594Z,1223.00
2023-05-05T11:02:09.526Z,1226.00
2023-05-05T11:03:09.627Z,1223.00
2023-05-05T11:04:09.593Z,1254.00
2023-05-05T11:05:09.528Z,1247.00
2023-05-05T11:06:09.480Z,1327.00
2023-05-05T11:07:12.699Z,1324.00
2023-05-05T11:08:10.569Z,1324.00
2023-05-05T11:09:09.467Z,1339.00
2023-05-05T11:10:09.580Z,1346.00
2023-05-05T11:11:09.393Z,1370.00
2023-05-05T11:12:09.480Z,1369.00
2023-05-05T11:13:09.377Z,1371.00
2023-05-05T11:14:09.357Z,1361.00
2023-05-05T11:15:09.349Z,1358.00
2023-05-05T11:16:09.331Z,1360.00
2023-05-05T11:17:09.984Z,1370.00
2023-05-05T11:18:09.417Z,1399.00
2023-05-05T11:19:09.475Z,1422.00
2023-05-05T11:20:09.700Z,1460.00
2023-05-05T11:21:09.540Z,1484.00
2023-05-05T11:22:09.570Z,1486.00
2023-05-05T11:23:09.635Z,1495.00
2023-05-05T11:24:09.670Z,1508.00
2023-05-05T11:25:09.726Z,1519.00
2023-05-05T11:26:09.765Z,1461.00
2023-05-05T11:27:09.792Z,1488.00
2023-05-05T11:28:10.013Z,1588.00
2023-05-05T11:29:09.907Z,1565.00
2023-05-05T11:30:10.331Z,1565.00
2023-05-05T11:31:10.043Z,1573.00
2023-05-05T11:32:10.027Z,1578.00
2023-05-05T11:33:10.064Z,1586.00
2023-05-05T11:34:10.098Z,1539.00
2023-05-05T11:35:10.157Z,1483.00
2023-05-05T11:36:10.227Z,1462.00
2023-05-05T11:37:10.309Z,1379.00
2023-05-05T11:38:10.289Z,1337.00
2023-05-05T11:39:10.368Z,1309.00
2023-05-05T11:40:10.526Z,1266.00
2023-05-05T11:41:10.422Z,1202.00
2023-05-05T11:42:11.068Z,1184.00
2023-05-05T11:43:10.518Z,1147.00
2023-05-05T11:44:10.757Z,1116.00
2023-05-05T11:45:10.595Z,1102.00
2023-05-05T11:46:10.671Z,1059.00
2023-05-05T11:47:10.690Z,1037.00
2023-05-05T11:48:10.606Z,1026.00
2023-05-05T11:49:10.566Z,1021.00
2023-05-05T11:50:10.587Z,1006.00
2023-05-05T11:51:10.563Z,991.00
2023-05-05T11:52:10.529Z,980.00
2023-05-05T11:53:10.518Z,974.00
2023-05-05T11:54:10.506Z,944.00
2023-05-05T11:55:10.521Z,931.00
2023-05-05T11:56:10.497Z,929.00
2023-05-05T11:57:10.490Z,924.00
2023-05-05T11:58:10.508Z,917.00
2023-05-05T11:59:10.509Z,908.00
2023-05-05T12:00:10.811Z,904.00
2023-05-05T12:01:10.419Z,901.00
2023-05-05T12:02:10.435Z,902.00
2023-05-05T12:03:10.444Z,894.00
2023-05-05T12:04:10.538Z,889.00
2023-05-05T12:05:10.354Z,888.00
2023-05-05T12:06:10.317Z,877.00
2023-05-05T12:07:10.316Z,876.00
2023-05-05T12:08:10.289Z,870.00
2023-05-05T12:09:10.280Z,869.00
2023-05-05T12:10:10.347Z,867.00
2023-05-05T12:11:10.259Z,863.00
2023-05-05T12:12:10.232Z,848.00
2023-05-05T12:13:10.272Z,844.00
2023-05-05T12:14:10.208Z,835.00
2023-05-05T12:15:10.304Z,831.00
2023-05-05T12:16:10.261Z,827.00
2023-05-05T12:17:10.146Z,822.00
2023-05-05T12:18:10.187Z,823.00
2023-05-05T12:19:10.117Z,819.00
2023-05-05T12:20:10.595Z,792.00
2023-05-05T12:21:10.112Z,793.00
2023-05-05T12:22:10.069Z,792.00
2023-05-05T12:23:10.074Z,788.00
2023-05-05T12:24:10.076Z,786.00